createdAt,value
2018-04-10T00:00:00.264Z,17.10
2018-04-10T00:02:30.248Z,17.08
2018-04-10T00:04:59.667Z,17.10
2018-04-10T00:07:28.917Z,17.11
2018-04-10T00:09:58.170Z,17.13
2018-04-10T00:12:28.192Z,17.10
2018-04-10T00:14:57.413Z,17.04
2018-04-10T00:17:26.660Z,17.02
2018-04-10T00:19:55.905Z,16.98
2018-04-10T00:22:25.901Z,16.98
2018-04-10T00:24:55.310Z,16.95
2018-04-10T00:27:24.557Z,16.93
2018-04-10T00:29:53.836Z,16.93
2018-04-10T00:32:23.051Z,16.92
2018-04-10T00:34:52.268Z,16.89
2018-04-10T00:37:21.576Z,16.88
2018-04-10T00:39:50.816Z,16.88
2018-04-10T00:42:20.033Z,16.89
2018-04-10T00:44:49.236Z,16.88
2018-04-10T00:47:18.428Z,16.87
2018-04-10T00:49:47.645Z,16.90
2018-04-10T00:52:16.860Z,16.94
2018-04-10T00:54:46.076Z,16.94
2018-04-10T00:57:16.080Z,16.92
2018-04-10T00:59:45.377Z,16.90
2018-04-10T01:02:14.577Z,16.86
2018-04-10T01:04:43.778Z,16.87
2018-04-10T01:07:13.040Z,16.91
2018-04-10T01:09:42.247Z,16.89
2018-04-10T01:12:11.463Z,16.88
2018-04-10T01:14:40.717Z,16.85
2018-04-10T01:17:09.941Z,16.83
2018-04-10T01:19:39.146Z,16.81
2018-04-10T01:22:08.364Z,16.74
2018-04-10T01:24:37.611Z,16.68
2018-04-10T01:27:06.838Z,16.55
2018-04-10T01:29:36.016Z,16.54
2018-04-10T01:32:05.249Z,16.48
2018-04-10T01:34:34.504Z,16.49
2018-04-10T01:37:04.180Z,16.57
2018-04-10T01:39:34.181Z,16.58
2018-04-10T01:42:03.397Z,16.63
2018-04-10T01:44:33.400Z,16.63
2018-04-10T01:47:03.425Z,16.63
2018-04-10T01:49:33.404Z,16.65
2018-04-10T01:52:02.626Z,16.68
2018-04-10T01:54:31.901Z,16.71
2018-04-10T01:57:01.248Z,16.71
2018-04-10T01:59:31.228Z,16.67
2018-04-10T02:02:00.443Z,16.67
2018-04-10T02:04:30.428Z,16.69
2018-04-10T02:06:59.686Z,16.70
2018-04-10T02:09:28.912Z,16.71
2018-04-10T02:11:58.174Z,16.66
2018-04-10T02:14:28.184Z,16.66
2018-04-10T02:16:58.219Z,16.64
2018-04-10T02:19:27.460Z,16.62
2018-04-10T02:21:56.715Z,16.61
2018-04-10T02:24:25.906Z,16.62
2018-04-10T02:26:55.199Z,16.48
2018-04-10T02:29:25.226Z,16.41
2018-04-10T02:31:54.450Z,16.42
2018-04-10T02:34:24.564Z,16.40
2018-04-10T02:36:53.824Z,16.36
2018-04-10T02:39:23.836Z,16.33
2018-04-10T02:41:53.835Z,16.28
2018-04-10T02:44:23.080Z,16.26
2018-04-10T02:46:52.325Z,16.18
2018-04-10T02:49:21.580Z,16.09
2018-04-10T02:51:50.865Z,15.99
2018-04-10T02:54:20.129Z,15.94
2018-04-10T02:56:49.454Z,15.88
2018-04-10T02:59:19.550Z,15.86
2018-04-10T03:01:49.606Z,15.79
2018-04-10T03:04:18.875Z,15.77
2018-04-10T03:06:48.893Z,15.76
2018-04-10T03:09:18.925Z,15.74
2018-04-10T03:11:49.005Z,15.68
2018-04-10T03:14:18.217Z,15.61
2018-04-10T03:16:48.263Z,15.51
2018-04-10T03:19:18.383Z,15.49
2018-04-10T03:21:47.612Z,15.47
2018-04-10T03:24:16.888Z,15.49
2018-04-10T03:26:46.120Z,15.48
2018-04-10T03:29:15.352Z,15.43
2018-04-10T03:31:45.764Z,15.47
2018-04-10T03:34:15.005Z,15.41
2018-04-10T03:36:45.023Z,15.34
2018-04-10T03:39:14.216Z,15.36
2018-04-10T03:41:43.441Z,15.34
2018-04-10T03:44:13.405Z,15.31
2018-04-10T03:46:42.628Z,15.13
2018-04-10T03:49:11.866Z,14.96
2018-04-10T03:51:41.087Z,14.98
2018-04-10T03:54:10.322Z,15.00
2018-04-10T03:56:39.520Z,14.98
2018-04-10T03:59:08.765Z,14.93
2018-04-10T04:01:38.917Z,14.83
2018-04-10T04:04:08.105Z,14.86
2018-04-10T04:06:38.103Z,14.84
2018-04-10T04:09:07.369Z,14.80
2018-04-10T04:11:36.620Z,14.76
2018-04-10T04:14:05.904Z,14.75
2018-04-10T04:16:53.049Z,14.71
2018-04-10T04:19:39.949Z,14.67
2018-04-10T04:25:09.048Z,14.59
2018-04-10T04:27:38.270Z,14.51
2018-04-10T04:30:08.280Z,14.51
2018-04-10T04:32:37.527Z,14.47
2018-04-10T04:35:06.760Z,14.43
2018-04-10T04:37:35.977Z,14.37
2018-04-10T04:40:06.009Z,14.35
2018-04-10T04:42:35.248Z,14.37
2018-04-10T04:45:04.449Z,14.37
2018-04-10T04:47:33.678Z,14.42
2018-04-10T04:50:03.656Z,14.40
2018-04-10T04:52:32.909Z,14.36
2018-04-10T04:55:02.131Z,14.36
2018-04-10T04:57:31.361Z,14.32
2018-04-10T05:00:00.583Z,14.22
2018-04-10T05:02:30.647Z,14.24
2018-04-10T05:04:59.997Z,14.31
2018-04-10T05:07:30.055Z,14.38
2018-04-10T05:09:59.293Z,14.40
2018-04-10T05:12:28.529Z,14.43
2018-04-10T05:14:57.758Z,14.44
2018-04-10T05:17:26.996Z,14.43
2018-04-10T05:19:56.200Z,14.45
2018-04-10T05:22:25.433Z,14.46
2018-04-10T05:24:55.015Z,14.49
2018-04-10T05:27:24.261Z,14.50
2018-04-10T05:29:53.616Z,14.49
2018-04-10T05:32:22.829Z,14.52
2018-04-10T05:34:52.049Z,14.54
2018-04-10T05:37:21.271Z,14.49
2018-04-10T05:39:50.508Z,14.49
2018-04-10T05:42:19.810Z,14.50
2018-04-10T05:44:48.993Z,14.53
2018-04-10T05:47:18.230Z,14.56
2018-04-10T05:49:47.473Z,14.57
2018-04-10T05:52:16.690Z,14.68
2018-04-10T05:54:46.012Z,14.70
2018-04-10T05:57:15.300Z,14.79
2018-04-10T05:59:45.298Z,14.83
2018-04-10T06:02:14.509Z,14.94
2018-04-10T06:04:44.495Z,14.98
2018-04-10T06:07:14.552Z,15.03
2018-04-10T06:09:44.541Z,15.13
2018-04-10T06:12:13.776Z,15.18
2018-04-10T06:14:43.785Z,15.27
2018-04-10T06:17:13.041Z,15.34
2018-04-10T06:19:42.309Z,15.41
2018-04-10T06:22:11.520Z,15.45
2018-04-10T06:24:40.800Z,15.54
2018-04-10T06:27:10.044Z,15.67
2018-04-10T06:29:39.270Z,15.81
2018-04-10T06:32:09.282Z,15.85
2018-04-10T06:34:39.260Z,15.85
2018-04-10T06:37:08.502Z,15.93
2018-04-10T06:39:38.503Z,15.96
2018-04-10T06:42:07.864Z,15.97
2018-04-10T06:44:37.106Z,16.03
2018-04-10T06:47:06.301Z,16.13
2018-04-10T06:49:36.377Z,16.22
2018-04-10T06:52:05.714Z,16.26
2018-04-10T06:54:34.926Z,16.36
2018-04-10T06:57:05.102Z,16.48
2018-04-10T06:59:34.334Z,16.59
2018-04-10T07:02:03.568Z,16.76
2018-04-10T07:04:32.824Z,16.89
2018-04-10T07:07:02.078Z,17.05
2018-04-10T07:09:31.269Z,17.21
2018-04-10T07:12:00.517Z,17.35
2018-04-10T07:14:29.736Z,17.44
2018-04-10T07:16:59.037Z,17.51
2018-04-10T07:19:29.021Z,17.61
2018-04-10T07:21:58.257Z,17.67
2018-04-10T07:24:27.477Z,17.68
2018-04-10T07:26:56.696Z,17.77
2018-04-10T07:29:25.945Z,17.91
2018-04-10T07:31:55.187Z,18.04
2018-04-10T07:34:24.463Z,18.15
2018-04-10T07:36:53.678Z,18.26
2018-04-10T07:39:22.913Z,18.39
2018-04-10T07:41:52.172Z,18.56
2018-04-10T07:44:21.389Z,18.70
2018-04-10T07:46:50.604Z,18.87
2018-04-10T07:49:20.606Z,19.08
2018-04-10T07:51:49.868Z,19.20
2018-04-10T07:54:19.104Z,19.33
2018-04-10T07:56:48.304Z,19.36
2018-04-10T07:59:17.561Z,19.40
2018-04-10T08:01:46.768Z,19.50
2018-04-10T08:04:16.095Z,19.57
2018-04-10T08:06:45.269Z,19.70
2018-04-10T08:09:14.498Z,19.78
2018-04-10T08:11:43.704Z,19.87
2018-04-10T08:14:13.569Z,19.99
2018-04-10T08:16:42.778Z,20.10
2018-04-10T08:19:12.176Z,20.19
2018-04-10T08:21:41.393Z,20.24
2018-04-10T08:24:10.646Z,20.24
2018-04-10T08:26:39.961Z,20.18
2018-04-10T08:29:09.198Z,20.23
2018-04-10T08:31:38.508Z,20.32
2018-04-10T08:34:07.801Z,20.28
2018-04-10T08:36:37.011Z,20.40
2018-04-10T08:39:06.965Z,20.48
2018-04-10T08:41:36.249Z,20.49
2018-04-10T08:44:05.842Z,20.49
2018-04-10T08:46:35.837Z,20.54
2018-04-10T08:49:05.059Z,20.60
2018-04-10T08:51:35.053Z,20.69
2018-04-10T08:54:04.258Z,20.80
2018-04-10T08:56:33.516Z,20.89
2018-04-10T08:59:02.691Z,20.97
2018-04-10T09:01:31.976Z,21.10
2018-04-10T09:04:01.150Z,21.15
2018-04-10T09:06:30.398Z,21.21
2018-04-10T09:08:59.641Z,21.28
2018-04-10T09:11:28.867Z,21.37
2018-04-10T09:13:58.917Z,21.37
2018-04-10T09:16:28.160Z,21.40
2018-04-10T09:18:57.399Z,21.40
2018-04-10T09:21:26.677Z,21.33
2018-04-10T09:23:55.963Z,21.37
2018-04-10T09:26:26.042Z,21.55
2018-04-10T09:28:55.281Z,21.69
2018-04-10T09:31:25.292Z,21.70
2018-04-10T09:33:55.280Z,21.77
2018-04-10T09:36:24.569Z,21.83
2018-04-10T09:38:53.810Z,21.97
2018-04-10T09:41:23.020Z,21.97
2018-04-10T09:43:53.003Z,22.12
2018-04-10T09:46:22.235Z,22.12
2018-04-10T09:48:51.478Z,22.18
2018-04-10T09:51:20.692Z,22.32
2018-04-10T09:53:50.140Z,22.37
2018-04-10T09:56:19.362Z,22.19
2018-04-10T09:58:48.623Z,22.22
2018-04-10T10:01:18.608Z,21.86
2018-04-10T10:03:47.900Z,21.83
2018-04-10T10:06:17.118Z,21.93
2018-04-10T10:08:47.121Z,21.78
2018-04-10T10:11:16.357Z,21.85
2018-04-10T10:13:45.632Z,21.93
2018-04-10T10:16:15.648Z,21.71
2018-04-10T10:18:44.859Z,21.87
2018-04-10T10:21:14.857Z,22.17
2018-04-10T10:23:44.850Z,22.35
2018-04-10T10:26:14.117Z,22.46
2018-04-10T10:28:43.344Z,22.47
2018-04-10T10:31:12.623Z,22.66
2018-04-10T10:33:42.589Z,22.84
2018-04-10T10:36:12.206Z,22.96
2018-04-10T10:38:41.572Z,22.71
2018-04-10T10:41:10.905Z,22.43
2018-04-10T10:43:40.885Z,22.29
2018-04-10T10:46:10.130Z,22.20
2018-04-10T10:48:40.107Z,21.84
2018-04-10T10:51:10.053Z,21.98
2018-04-10T10:53:40.068Z,21.93
2018-04-10T10:56:09.287Z,21.72
2018-04-10T10:58:39.242Z,21.93
2018-04-10T11:01:08.485Z,22.25
2018-04-10T11:03:38.522Z,22.58
2018-04-10T11:06:07.833Z,22.79
2018-04-10T11:08:37.009Z,22.56
2018-04-10T11:11:06.210Z,22.21
2018-04-10T11:13:36.192Z,22.10
2018-04-10T11:16:06.233Z,22.00
2018-04-10T11:18:35.466Z,21.87
2018-04-10T11:21:04.716Z,21.87
2018-04-10T11:23:34.702Z,21.78
2018-04-10T11:26:03.930Z,21.66
2018-04-10T11:28:33.124Z,21.46
2018-04-10T11:31:03.154Z,21.41
2018-04-10T11:33:33.133Z,21.26
2018-04-10T11:36:02.368Z,21.14
2018-04-10T11:38:32.360Z,21.21
2018-04-10T11:41:01.662Z,21.29
2018-04-10T11:43:30.873Z,21.25
2018-04-10T11:46:00.824Z,21.18
2018-04-10T11:48:30.077Z,20.97
2018-04-10T11:50:59.284Z,20.82
2018-04-10T11:53:29.283Z,20.82
2018-04-10T11:55:58.508Z,20.84
2018-04-10T11:58:27.817Z,20.90
2018-04-10T12:00:57.042Z,21.00
2018-04-10T12:03:26.340Z,21.05
2018-04-10T12:05:55.548Z,21.05
2018-04-10T12:08:24.797Z,21.06
2018-04-10T12:10:54.756Z,21.06
2018-04-10T12:13:23.998Z,21.06
2018-04-10T12:15:53.225Z,21.06
2018-04-10T12:18:22.520Z,21.11
2018-04-10T12:20:51.761Z,21.09
2018-04-10T12:23:20.988Z,21.04
2018-04-10T12:25:50.281Z,21.08
2018-04-10T12:28:19.495Z,21.09
2018-04-10T12:30:49.473Z,21.15
2018-04-10T12:33:19.521Z,21.26
2018-04-10T12:35:49.534Z,21.35
2018-04-10T12:38:18.733Z,21.42
2018-04-10T12:40:49.000Z,21.41
2018-04-10T12:43:18.143Z,21.39
2018-04-10T12:45:47.382Z,21.42
2018-04-10T12:48:16.611Z,21.40
2018-04-10T12:50:45.872Z,21.50
2018-04-10T12:53:15.804Z,21.52
2018-04-10T12:55:45.034Z,21.41
2018-04-10T12:58:14.260Z,21.38
2018-04-10T13:00:44.288Z,21.38
2018-04-10T13:03:13.564Z,21.39
2018-04-10T13:05:42.859Z,21.37
2018-04-10T13:08:12.075Z,21.32
2018-04-10T13:10:42.186Z,21.41
2018-04-10T13:13:12.273Z,21.45
2018-04-10T13:15:41.541Z,21.52
2018-04-10T13:18:10.813Z,21.65
2018-04-10T13:20:40.853Z,21.77
2018-04-10T13:23:10.160Z,21.88
2018-04-10T13:25:42.392Z,21.95
2018-04-10T13:28:12.543Z,21.97
2018-04-10T13:30:41.749Z,21.94
2018-04-10T13:33:10.986Z,21.98
2018-04-10T13:35:40.199Z,22.00
2018-04-10T13:38:10.391Z,22.01
2018-04-10T13:40:39.562Z,21.97
2018-04-10T13:43:08.802Z,21.98
2018-04-10T13:45:38.054Z,22.06
2018-04-10T13:48:07.282Z,22.07
2018-04-10T13:50:36.501Z,22.02
2018-04-10T13:53:05.747Z,21.94
2018-04-10T13:55:34.988Z,21.92
2018-04-10T13:58:04.210Z,21.92
2018-04-10T14:00:34.277Z,21.93
2018-04-10T14:03:03.492Z,22.00
2018-04-10T14:05:32.724Z,22.05
2018-04-10T14:08:02.693Z,22.07
2018-04-10T14:10:31.937Z,22.12
2018-04-10T14:13:01.927Z,22.17
2018-04-10T14:15:31.156Z,22.24
2018-04-10T14:18:00.384Z,22.28
2018-04-10T14:20:29.653Z,22.28
2018-04-10T14:22:59.641Z,22.28
2018-04-10T14:25:28.883Z,22.38
2018-04-10T14:27:58.131Z,22.40
2018-04-10T14:30:27.385Z,22.41
2018-04-10T14:32:56.594Z,22.41
2018-04-10T14:35:25.837Z,22.40
2018-04-10T14:37:55.821Z,22.40
2018-04-10T14:40:25.097Z,22.43
2018-04-10T14:42:54.340Z,22.42
2018-04-10T14:45:23.579Z,22.42
2018-04-10T14:47:52.812Z,22.46
2018-04-10T14:50:22.038Z,22.53
2018-04-10T14:52:52.065Z,22.57
2018-04-10T14:55:21.307Z,22.61
2018-04-10T14:57:50.574Z,22.62
2018-04-10T15:00:19.794Z,22.67
2018-04-10T15:02:49.034Z,22.57
2018-04-10T15:05:18.309Z,22.49
2018-04-10T15:07:47.581Z,22.43
2018-04-10T15:10:16.809Z,22.39
2018-04-10T15:12:46.021Z,22.39
2018-04-10T15:15:15.237Z,22.41
2018-04-10T15:17:44.485Z,22.44
2018-04-10T15:20:13.680Z,22.44
2018-04-10T15:22:42.910Z,22.49
2018-04-10T15:25:12.122Z,22.58
2018-04-10T15:27:41.355Z,22.58
2018-04-10T15:30:11.374Z,22.62
2018-04-10T15:32:40.583Z,22.59
2018-04-10T15:35:09.817Z,22.56
2018-04-10T15:37:39.074Z,22.52
2018-04-10T15:40:08.317Z,22.56
2018-04-10T15:42:37.521Z,22.52
2018-04-10T15:45:06.761Z,22.53
2018-04-10T15:47:35.969Z,22.43
2018-04-10T15:50:05.227Z,22.33
2018-04-10T15:52:35.261Z,22.34
2018-04-10T15:55:05.261Z,22.27
2018-04-10T15:57:35.296Z,22.22
2018-04-10T16:00:05.325Z,22.20
2018-04-10T16:02:34.773Z,22.23
2018-04-10T16:05:04.006Z,22.28
2018-04-10T16:07:33.969Z,22.24
2018-04-10T16:10:03.205Z,22.20
2018-04-10T16:12:32.511Z,22.22
2018-04-10T16:15:01.732Z,22.28
2018-04-10T16:17:31.008Z,22.29
2018-04-10T16:20:00.265Z,22.27
2018-04-10T16:22:29.482Z,22.25
2018-04-10T16:24:58.767Z,22.26
2018-04-10T16:27:27.988Z,22.25
2018-04-10T16:29:58.048Z,22.25
2018-04-10T16:32:28.064Z,22.17
2018-04-10T16:34:58.135Z,22.11
2018-04-10T16:37:28.848Z,22.09
2018-04-10T16:39:58.193Z,22.11
2018-04-10T16:42:27.420Z,22.12
2018-04-10T16:44:56.630Z,22.11
2018-04-10T16:47:25.865Z,22.05
2018-04-10T16:49:55.073Z,22.00
2018-04-10T16:52:24.301Z,21.94
2018-04-10T16:54:53.529Z,21.88
2018-04-10T16:57:22.761Z,21.82
2018-04-10T16:59:51.969Z,21.79
2018-04-10T17:02:21.980Z,21.75
2018-04-10T17:04:51.183Z,21.72
2018-04-10T17:07:21.224Z,21.65
2018-04-10T17:09:50.459Z,21.55
2018-04-10T17:12:20.098Z,21.49
2018-04-10T17:14:49.313Z,21.42
2018-04-10T17:17:19.328Z,21.37
2018-04-10T17:19:49.297Z,21.34
2018-04-10T17:22:18.576Z,21.35
2018-04-10T17:24:47.886Z,21.35
2018-04-10T17:27:17.082Z,21.31
2018-04-10T17:29:46.543Z,21.21
2018-04-10T17:32:16.512Z,21.13
2018-04-10T17:34:45.744Z,21.11
2018-04-10T17:37:14.952Z,21.06
2018-04-10T17:39:45.037Z,21.03
2018-04-10T17:42:14.245Z,21.01
2018-04-10T17:44:43.483Z,20.90
2018-04-10T17:47:12.717Z,20.87
2018-04-10T17:49:41.961Z,20.81
2018-04-10T17:52:11.173Z,20.84
2018-04-10T17:54:40.412Z,20.82
2018-04-10T17:57:09.665Z,20.78
2018-04-10T17:59:39.673Z,20.72
2018-04-10T18:02:09.741Z,20.65
2018-04-10T18:04:39.097Z,20.58
2018-04-10T18:07:09.084Z,20.59
2018-04-10T18:09:38.376Z,20.55
2018-04-10T18:12:08.530Z,20.51
2018-04-10T18:14:37.763Z,20.48
2018-04-10T18:17:07.045Z,20.49
2018-04-10T18:19:36.290Z,20.48
2018-04-10T18:22:05.511Z,20.39
2018-04-10T18:24:34.790Z,20.31
2018-04-10T18:27:04.070Z,20.19
2018-04-10T18:29:33.294Z,20.19
2018-04-10T18:32:02.560Z,20.17
2018-04-10T18:34:31.802Z,20.16
2018-04-10T18:37:01.062Z,20.15
2018-04-10T18:39:30.272Z,20.12
2018-04-10T18:41:59.572Z,20.10
2018-04-10T18:44:30.326Z,20.08
2018-04-10T18:46:59.567Z,20.07
2018-04-10T18:49:29.044Z,20.06
2018-04-10T18:51:59.073Z,20.04
2018-04-10T18:54:29.421Z,20.03
2018-04-10T18:56:58.890Z,20.02
2018-04-10T18:59:28.904Z,19.99
2018-04-10T19:01:59.125Z,19.92
2018-04-10T19:04:29.120Z,19.85
2018-04-10T19:06:58.429Z,19.84
2018-04-10T19:09:27.682Z,19.85
2018-04-10T19:11:56.926Z,19.82
2018-04-10T19:14:26.198Z,19.79
2018-04-10T19:16:55.444Z,19.74
2018-04-10T19:19:25.440Z,19.68
2018-04-10T19:21:55.419Z,19.68
2018-04-10T19:24:24.669Z,19.63
2018-04-10T19:26:54.684Z,19.50
2018-04-10T19:29:24.710Z,19.39
2018-04-10T19:31:54.695Z,19.33
2018-04-10T19:34:23.948Z,19.37
2018-04-10T19:36:53.185Z,19.38
2018-04-10T19:39:22.712Z,19.37
2018-04-10T19:41:52.718Z,19.31
2018-04-10T19:44:21.933Z,19.19
2018-04-10T19:46:51.925Z,19.13
2018-04-10T19:49:21.177Z,19.07
2018-04-10T19:51:50.410Z,18.97
2018-04-10T19:54:19.642Z,18.84
2018-04-10T19:56:49.649Z,18.74
2018-04-10T19:59:19.238Z,18.66
2018-04-10T20:01:48.506Z,18.58
2018-04-10T20:04:17.833Z,18.56
2018-04-10T20:06:48.028Z,18.51
2018-04-10T20:09:17.343Z,18.38
2018-04-10T20:11:46.635Z,18.33
2018-04-10T20:14:15.877Z,18.26
2018-04-10T20:16:45.972Z,18.11
2018-04-10T20:19:15.241Z,17.97
2018-04-10T20:21:44.683Z,17.87
2018-04-10T20:24:13.953Z,17.74
2018-04-10T20:26:43.232Z,17.62
2018-04-10T20:29:12.446Z,17.49
2018-04-10T20:31:41.729Z,17.38
2018-04-10T20:34:10.941Z,17.32
2018-04-10T20:36:40.190Z,17.21
2018-04-10T20:39:10.218Z,17.09
2018-04-10T20:41:40.216Z,16.99
2018-04-10T20:44:10.290Z,16.92
2018-04-10T20:46:39.486Z,16.84
2018-04-10T20:49:08.761Z,16.86
2018-04-10T20:51:37.970Z,16.87
2018-04-10T20:54:07.200Z,16.83
2018-04-10T20:56:36.449Z,16.83
2018-04-10T20:59:05.693Z,16.84
2018-04-10T21:01:35.024Z,16.84
2018-04-10T21:04:05.010Z,16.79
2018-04-10T21:06:34.286Z,16.73
2018-04-10T21:09:03.511Z,16.70
2018-04-10T21:11:32.736Z,16.68
2018-04-10T21:14:02.733Z,16.69
2018-04-10T21:16:31.949Z,16.68
2018-04-10T21:19:01.207Z,16.64
2018-04-10T21:21:30.424Z,16.60
2018-04-10T21:23:59.705Z,16.57
2018-04-10T21:26:28.914Z,16.54
2018-04-10T21:28:58.157Z,16.51
2018-04-10T21:31:28.162Z,16.42
2018-04-10T21:33:58.133Z,16.36
2018-04-10T21:36:27.353Z,16.28
2018-04-10T21:38:57.384Z,16.27
2018-04-10T21:41:26.626Z,16.20
2018-04-10T21:43:55.884Z,16.16
2018-04-10T21:46:25.102Z,16.15
2018-04-10T21:48:54.433Z,15.97
2018-04-10T21:51:23.685Z,15.92
2018-04-10T21:53:53.678Z,15.89
2018-04-10T21:56:22.916Z,15.86
2018-04-10T21:58:52.172Z,15.84
2018-04-10T22:01:21.411Z,15.75
2018-04-10T22:03:50.642Z,15.61
2018-04-10T22:06:19.934Z,15.49
2018-04-10T22:08:49.223Z,15.38
2018-04-10T22:11:18.392Z,15.30
2018-04-10T22:13:48.421Z,15.26
2018-04-10T22:16:17.648Z,15.22
2018-04-10T22:18:46.876Z,15.25
2018-04-10T22:21:16.100Z,15.24
2018-04-10T22:23:46.105Z,15.24
2018-04-10T22:26:16.090Z,15.24
2018-04-10T22:28:45.315Z,15.19
2018-04-10T22:31:15.338Z,15.11
2018-04-10T22:33:45.314Z,15.08
2018-04-10T22:36:14.551Z,15.07
2018-04-10T22:38:43.783Z,15.05
2018-04-10T22:41:13.418Z,15.08
2018-04-10T22:43:42.641Z,15.05
2018-04-10T22:46:11.850Z,14.99
2018-04-10T22:48:41.088Z,15.00
2018-04-10T22:51:10.338Z,15.00
2018-04-10T22:53:39.557Z,15.01
2018-04-10T22:56:08.978Z,15.02
2018-04-10T22:58:38.203Z,15.02
2018-04-10T23:01:08.185Z,15.01
2018-04-10T23:03:37.394Z,15.03
2018-04-10T23:06:06.616Z,15.02
2018-04-10T23:08:35.878Z,15.03
2018-04-10T23:11:06.168Z,15.05
2018-04-10T23:13:36.138Z,15.04
2018-04-10T23:16:05.369Z,15.07
2018-04-10T23:18:34.630Z,15.09
2018-04-10T23:21:03.878Z,15.06
2018-04-10T23:23:33.229Z,15.08
2018-04-10T23:26:03.255Z,15.09
2018-04-10T23:28:32.442Z,15.12
2018-04-10T23:31:01.673Z,15.14
2018-04-10T23:33:30.923Z,15.19
2018-04-10T23:36:00.213Z,15.21
2018-04-10T23:38:29.454Z,15.27
2018-04-10T23:40:58.667Z,15.29
2018-04-10T23:43:27.905Z,15.30
2018-04-10T23:45:57.871Z,15.29
2018-04-10T23:48:27.105Z,15.35
2018-04-10T23:50:56.319Z,15.38
2018-04-10T23:53:26.305Z,15.35
2018-04-10T23:55:55.533Z,15.38
2018-04-10T23:58:25.531Z,15.34
